Trubcevsk, Russia
Current Conditions -  °F | °C
As of 4:00 PM on Saturday 25 Oct 2014 (Local Time) from UUBP Reporting Station
Clear Clear  
Wind Chill: 34°   Ceiling: Unl
Heat Index: 34°   Visibility: 6mi
Dew Point: 12°   Wind: 2mph
Humidity: 41%   Direction: 130°SE
Pressure: 30.62"   Gusts: NA
Location:  52.58°N, 33.79°E
Report Text: UUBP 251300Z 13001MPS CAVOK 01/M11 Q1037 NOSIG RMK QFE76034CLRD70
Loading
Personal Weather Stations






























Interactive Weather Map
Tropical Storm Tracking
New forecast layout! Learn more

10-Day Weather Forecast

Advertisements
Track Severe Weather on mobile